• Join FlightAware (Why Join?)
  • Login
  • US Flag 
02:42PM EDT


 

Airport Tracker/Info


-or-


 

Live Flight TrackerFlight Track Log ✈ VH-SKC ✈ 17-Sep-2013 ✈ YHLC / HCQ - YBRM / BME

Flight Track Log - Related Links

Times and Time Zones

All times are in EDT time to prevent confusion due to time zone crossing. See the VH-SKC flight status page for this flight to view local times or setup timezone preferences in your user account.

Time Position Orientation Groundspeed Altitude Reporting Facility
EDT Latitude Longitude Course Direction KTS MPH feet Rate Location/Type
11:16PM -18.2329 127.6037 73° East 10,000  Level Aus ATC (Calculated)
11:17PM -18.2321 127.6064 360° North 10,000  Level Aus ATC (Calculated)
11:17PM -18.2321 127.6064 271° West 10,000  Level Aus ATC (Calculated)
11:19PM -18.2314 127.5580 271° West  Level FlightAware Approximate
11:20PM -18.2307 127.5134 271° West  Level FlightAware Approximate
11:20PM -18.2301 127.4744 271° West 10,000  Level Aus ATC (Calculated)
11:21PM -18.2300 127.4687 271° West  Level FlightAware Approximate
11:22PM -18.2293 127.4260 271° West  Level FlightAware Approximate
11:23PM -18.2285 127.3813 271° West  Level FlightAware Approximate
11:24PM -18.2278 127.3367 271° West  Level FlightAware Approximate
11:25PM -18.2271 127.2920 271° West  Level FlightAware Approximate
11:26PM -18.2263 127.2474 271° West  Level FlightAware Approximate
11:27PM -18.2255 127.2027 271° West  Level FlightAware Approximate
11:28PM -18.2248 127.1581 271° West  Level FlightAware Approximate
11:28PM -18.2251 127.1422 271° West 10,000  Level Aus ATC (Calculated)
11:30PM -18.2238 127.0715 271° West  Level FlightAware Approximate
11:31PM -18.2230 127.0250 271° West  Level FlightAware Approximate
11:32PM -18.2221 126.9784 271° West  Level FlightAware Approximate
11:33PM -18.2212 126.9319 271° West  Level FlightAware Approximate
11:34PM -18.2203 126.8853 271° West  Level FlightAware Approximate
11:35PM -18.2194 126.8387 271° West  Level FlightAware Approximate
11:36PM -18.2185 126.7922 271° West  Level FlightAware Approximate
11:37PM -18.2175 126.7456 271° West  Level FlightAware Approximate
11:38PM -18.2166 126.6991 271° West  Level FlightAware Approximate
11:39PM -18.2156 126.6525 271° West  Level FlightAware Approximate
11:40PM -18.2147 126.6059 271° West  Level FlightAware Approximate
11:41PM -18.2137 126.5594 271° West  Level FlightAware Approximate
11:41PM -18.2131 126.5502 271° West 10,000  Level Aus ATC (Calculated)
11:42PM -18.2127 126.5128 271° West  Level FlightAware Approximate
11:43PM -18.2119 126.4951 271° West  Level FlightAware Approximate
11:44PM -18.2110 126.4486 271° West  Level FlightAware Approximate
11:45PM -18.2099 126.4020 271° West  Level FlightAware Approximate
11:46PM -18.2089 126.3555 271° West  Level FlightAware Approximate
11:47PM -18.2079 126.3089 271° West  Level FlightAware Approximate
11:47PM -18.2074 126.2862 271° West 10,000  Level Aus ATC (Calculated)
11:49PM -18.2059 126.2195 271° West  Level FlightAware Approximate
11:50PM -18.2049 126.1729 271° West  Level FlightAware Approximate
11:51PM -18.2038 126.1264 271° West  Level FlightAware Approximate
11:52PM -18.2028 126.0798 271° West  Level FlightAware Approximate
11:53PM -18.2017 126.0333 271° West  Level FlightAware Approximate
11:54PM -18.2006 125.9867 271° West  Level FlightAware Approximate
11:55PM -18.1995 125.9402 271° West  Level FlightAware Approximate
11:56PM -18.1983 125.8936 271° West  Level FlightAware Approximate
11:57PM -18.1972 125.8471 271° West  Level FlightAware Approximate
11:58PM -18.1961 125.8005 271° West  Level FlightAware Approximate
11:59PM -18.1949 125.7540 271° West  Level FlightAware Approximate
12:00AM -18.1938 125.7074 272° West  Level FlightAware Approximate
12:01AM -18.1926 125.6609 272° West  Level FlightAware Approximate
12:01AM -18.1934 125.6923 271° West 10,000  Level Aus ATC (Calculated)
12:01AM -18.1917 125.6262 91° East 10,000  Level Aus ATC (Calculated)
12:02AM -18.1922 125.6457 272° West  Level FlightAware Approximate
12:02AM -18.1917 125.6262 272° West 10,000  Level Aus ATC (Calculated)
12:04AM -18.1887 125.5410 274° West  Level FlightAware Approximate
12:05AM -18.1854 125.4933 274° West  Level FlightAware Approximate
12:06AM -18.1821 125.4456 274° West  Level FlightAware Approximate
12:07AM -18.1788 125.3980 274° West  Level FlightAware Approximate
12:08AM -18.1755 125.3503 274° West  Level FlightAware Approximate
12:09AM -18.1722 125.3027 274° West  Level FlightAware Approximate
12:10AM -18.1689 125.2550 274° West  Level FlightAware Approximate
12:11AM -18.1656 125.2074 274° West  Level FlightAware Approximate
12:12AM -18.1622 125.1597 274° West  Level FlightAware Approximate
12:13AM -18.1589 125.1121 274° West  Level FlightAware Approximate
12:14AM -18.1555 125.0644 274° West  Level FlightAware Approximate
12:15AM -18.1521 125.0168 274° West  Level FlightAware Approximate
12:15AM -18.1519 125.0139 274° West 10,000  Level Aus ATC (Calculated)
12:17AM -18.1477 124.9544 274° West  Level FlightAware Approximate
12:18AM -18.1443 124.9067 274° West  Level FlightAware Approximate
12:19AM -18.1408 124.8591 274° West  Level FlightAware Approximate
12:20AM -18.1374 124.8114 274° West  Level FlightAware Approximate
12:21AM -18.1339 124.7638 274° West  Level FlightAware Approximate
12:22AM -18.1305 124.7161 274° West  Level FlightAware Approximate
12:23AM -18.1270 124.6685 274° West  Level FlightAware Approximate
12:24AM -18.1235 124.6209 274° West  Level FlightAware Approximate
12:25AM -18.1201 124.5733 274° West  Level FlightAware Approximate
12:25AM -18.1203 124.5770 360° North 10,000  Level Aus ATC (Calculated)
12:26AM -18.1203 124.5770 274° West 10,000  Level Aus ATC (Calculated)
12:28AM -18.1136 124.4857 274° West  Level FlightAware Approximate
12:28AM -18.1123 124.4678 274° West 10,000  Level Aus ATC (Calculated)
12:29AM -18.1082 124.4132 360° North 10,000  Level Aus ATC (Calculated)
12:29AM -18.1082 124.4132 360° North 10,000  Level Aus ATC (Calculated)
12:30AM -18.1082 124.4132 274° West 10,000  Level Aus ATC (Calculated)
12:32AM -18.1014 124.3219 274° West  Level FlightAware Approximate
12:33AM -18.0979 124.2743 274° West  Level FlightAware Approximate
12:34AM -18.0943 124.2267 275° West  Level FlightAware Approximate
12:35AM -18.0907 124.1791 275° West  Level FlightAware Approximate
12:36AM -18.0871 124.1314 275° West  Level FlightAware Approximate
12:36AM -18.0877 124.1402 275° West 10,000  Level Aus ATC (Calculated)
12:37AM -18.0841 124.0926 275° West  Level FlightAware Approximate
12:38AM -18.0805 124.0450 275° West  Level FlightAware Approximate
12:38AM -18.0753 123.9765 360° North 10,000  Level Aus ATC (Calculated)
12:38AM -18.0753 123.9765 95° East 10,000  Level Aus ATC (Calculated)
12:39AM -18.0769 123.9974 275° West  Level FlightAware Approximate
12:40AM -18.0716 123.9281 275° West  Level FlightAware Approximate
12:41AM -18.0679 123.8805 275° West  Level FlightAware Approximate
12:42AM -18.0642 123.8329 275° West  Level FlightAware Approximate
12:43AM -18.0605 123.7853 275° West  Level FlightAware Approximate
12:44AM -18.0642 123.8329 95° East  Level FlightAware Approximate
12:45AM -18.0609 123.7853 274° West  Level Estimated
12:46AM -18.0576 123.7376 274° West  Level FlightAware Approximate
12:47AM -18.0542 123.6900 274° West  Level FlightAware Approximate
12:47AM -18.0492 123.6145 93° East 100  Level Aus ATC (Calculated)
12:48AM -18.0508 123.6424 274° West  Level FlightAware Approximate
12:48AM -18.0488 123.6155 274° West 300  Level Aus ATC (Calculated)
12:50AM -18.0430 123.5337 274° West  Level FlightAware Approximate
12:51AM -18.0396 123.4861 274° West  Level FlightAware Approximate
12:52AM -18.0362 123.4385 274° West  Level FlightAware Approximate
12:53AM -18.0328 123.3909 274° West  Level FlightAware Approximate
12:54AM -18.0294 123.3433 274° West  Level FlightAware Approximate
12:54AM -18.0277 123.3196 274° West 300  Level Aus ATC (Calculated)
12:56AM -18.0220 123.2410 274° West  Level FlightAware Approximate
12:56AM -18.0218 123.2181 275° West 100  Level Aus ATC (Calculated)
12:57AM -18.0133 123.1224 97° East 300 300 Climbing Aus ATC (Calculated)
12:58AM -18.0169 123.1531 274° West  Level FlightAware Approximate
12:59AM -18.0074 123.0415 274° West  Level FlightAware Approximate
12:59AM -18.0077 123.0200 275° West 100  Level Aus ATC (Calculated)
01:01AM -18.0013 122.9359 275° West  Level FlightAware Approximate
01:02AM -17.9977 122.8884 275° West  Level FlightAware Approximate
01:03AM -17.9940 122.8408 275° West  Level FlightAware Approximate
01:04AM -17.9903 122.7932 275° West  Level FlightAware Approximate
01:05AM -17.9866 122.7456 275° West  Level FlightAware Approximate
01:06AM -17.9829 122.6980 275° West  Level FlightAware Approximate
01:07AM -17.9792 122.6505 275° West  Level FlightAware Approximate
01:08AM -17.9755 122.6029 275° West  Level FlightAware Approximate
01:08AM -17.9766 122.6295 245° Southwest 300  Level Aus ATC (Calculated)
01:08AM -17.9791 122.6238 279° West 100 -420 Descending Aus ATC (Calculated)
01:09AM -17.9730 122.5819 275° West  Level FlightAware Approximate
01:09AM -17.9766 122.6295 273° West 300  Level Aus ATC (Calculated)
01:10AM -17.9731 122.5525 275° West  Level FlightAware Approximate
01:11AM -17.9712 122.5581 275° West  Level FlightAware Approximate
01:12AM -17.9675 122.5105 275° West  Level FlightAware Approximate
01:13AM -17.9639 122.4629 275° West  Level FlightAware Approximate
01:14AM -17.9603 122.4154 275° West  Level FlightAware Approximate
01:15AM -17.9566 122.3678 275° West  Level FlightAware Approximate
01:16AM -17.9529 122.3202 275° West  Level FlightAware Approximate
01:17AM -17.9492 122.2727 275° West  Level FlightAware Approximate
01:18AM -17.9463 122.2353 274° West  Level FlightAware Approximate
01:19AM -17.9447 122.2317 274° West  Level Estimated
01:20AM -17.9463 122.2353 274° West  Level FlightAware Approximate
01:21AM -17.9447 122.2317 274° West  Level Estimated
01:22AM -17.9463 122.2353 274° West  Level FlightAware Approximate
01:23AM -17.9447 122.2317 274° West  Level Estimated
01:24AM -17.9463 122.2353 274° West  Level FlightAware Approximate
01:25AM -17.9447 122.2317 274° West  Level Estimated
01:26AM -17.9463 122.2353 274° West  Level FlightAware Approximate